Decoded Metar for ORER ( in ) (IATA:) | Meteo·Mobile Aviation Weather
aviador You're here:

ORER Decoded Metar

in
Report Time2018-12-14 16:00:00
UTC Time2018-12-14 16:36:07
Flight Rules vfr VFR
Wind280° at 07 kt
W.Decomp.*RWY 33: 4.5 kt HW 5.4 kt LCW
RWY 36: 1.2 kt HW 6.9 kt LCW
W.Rank280° ranks 4
Current wind is above 280° avg. (6.6)
Visibility9999 m
Phenomena:N/A
Clouds:N/A
Expected CloudBase > 1,200 ft AGL from Temp-Dew spread
CeilingNone
Temp08°C
Dew Point05°C (82% RH)
AAT4.4°C
QNH1029 hPa
Raw Report
ORER 141600Z 28007KT CAVOK 08/05 Q1029 NOSIG=

Extra information for ORER:More info

Social comments